Tiempo atmosférico en la estación meteorológica de Bailén, Jaén (345 m.)



Fecha
DESCASC
Temp. máxima en grados centígrados (hora)
DESCASC
Temp. mínima en grados centígrados (hora)
DESCASC
Temp. media en grados centígrados
DESCASC
Racha de viento máxima en m/sg (hora)
DESCASC
Velocidad máxima media en intervalos de 10 minutos(hora)
DESCASC
Precipitaciones diarias en mm
DESCASC
Precipitaciones de 00:00 a 06:00 en mm
DESCASC
Precipitaciones de 06:00 a 12:00 en mm
DESCASC
Precipitaciones de 12:00 a 18:00 en mm
DESCASC
Precipitaciones de 18:00 a 24:00 en mm
DESCASC
23-06-2019 36 (17:10) 19 (07:40) 27.5 6.67 (19:30) 2.78 (05:00) 0 0 0 0 0
22-06-2019 34.4 (17:50) 17.2 (07:20) 25.8 6.11 (19:10) 2.5 (19:40) 0 0 0 0 0
21-06-2019 31.5 (17:20) 16.5 (07:10) 24 6.11 (00:50) 1.67 (22:10) 0 0 0 0 0
20-06-2019 30.7 (16:50) 17 (00:00) 23.9 7.22 (17:40) 2.22 (17:20) 0 0 0 0 0
19-06-2019 29.9 (17:50) 17.4 (00:00) 23.6 5.83 (17:30) 2.78 (08:30) 0 0 0 0 0
18-06-2019 30.7 (17:30) 17.5 (00:00) 24.1 10 (17:00) 3.61 (18:40) 0 0 0 0 0
17-06-2019 33.3 (17:20) 16 (00:00) 24.6 7.22 (19:20) 2.78 (19:20) 0.2 0 0 0.2 0
16-06-2019 29.9 (18:20) 15 (00:00) 22.4 6.11 (19:10) 1.67 (18:40) 0 0 0 0 0
15-06-2019 29.2 (18:00) 12.8 (00:00) 21 6.39 (00:50) 1.94 (15:00) 0 0 0 0 0
14-06-2019 25.5 (16:10) 17.6 (00:00) 21.6 10 (13:10) 3.89 (12:10) 0 0 0 0 0
13-06-2019 29.7 (18:00) 17.1 (00:00) 23.4 7.78 (18:40) 3.33 (18:30) 0 0 0 0 0
12-06-2019 29.6 (18:20) 17.1 (00:00) 23.4 6.39 (19:00) 3.33 (06:00) 0 0 0 0 0
11-06-2019 29.5 (18:30) 14.6 (00:00) 22.1 9.72 (21:10) 5 (20:20) 0 0 0 0 0
10-06-2019 29.1 (17:40) 14.6 (00:00) 21.9 6.67 (12:40) 2.22 (20:50) 0 0 0 0 0
09-06-2019 29.1 (17:30) 17.7 (00:00) 23.4 7.5 (18:10) 2.22 (14:00) 0 0 0 0 0
08-06-2019 30.8 (15:20) 13.2 (00:00) 22 6.67 (19:50) 2.5 (02:00) 0 0 0 0 0
07-06-2019 27.5 (19:30) 15.2 (00:00) 21.3 8.61 (00:30) 2.22 (00:30) 0 0 0 0 0
06-06-2019 28.5 (17:10) 11.9 (00:00) 20.2 10 (17:20) 3.89 (19:00) 0 0 0 0 0
05-06-2019 25 (16:00) 14.7 (00:00) 19.8 9.72 (06:00) 4.72 (06:10) 0 0 0 0 0
04-06-2019 32.3 (16:30) 17.9 (00:00) 25.1 8.61 (17:40) 2.78 (13:20) 0 0 0 0 0
03-06-2019 36.2 (17:30) 18 (00:00) 27.1 8.06 (19:30) 2.78 (04:00) 0 0 0 0 0
02-06-2019 36.9 (18:10) 16.7 (00:00) 26.8 6.67 (17:40) 2.22 (17:10) 0 0 0 0 0
01-06-2019 36.6 (18:00) 18.6 (00:00) 27.6 7.78 (15:20) 3.33 (16:40) 0 0 0 0 0
31-05-2019 35.3 (18:10) 18.2 (00:00) 26.8 9.17 (14:30) 3.61 (10:50) 0 0 0 0 0
30-05-2019 34.1 (17:20) 17.8 (00:00) 25.9 8.33 (15:10) 3.33 (21:50) 0 0 0 0 0
29-05-2019 33.1 (18:00) 19.2 (00:00) 26.1 9.44 (04:00) 4.72 (04:30) 0 0 0 0 0
28-05-2019 36 (18:10) 19 (00:00) 27.5 9.17 (21:50) 4.72 (21:50) 0 0 0 0 0

Gráficas

Temp. máximas Temp. mínimas Temp. medias Precipitaciones Rachas de viento máximas Velocidades máximas media en intervalos de 10 minutos

Datos horarios

Fecha y hora oficial Temperatura (ºC) Velocidad del viento (km/h) Dirección del viento Racha (km/h) Dirección de racha Precipitación (mm) Presión (hPa) Tendencia (hPa) Humedad (%)
2019-06-26 23:00:00 28.8 4 Sudoeste 17 Oeste 0 -- -- 45
2019-06-26 22:00:00 30 4 Sudoeste 18 Oeste 0 -- -- 42
2019-06-26 21:00:00 31.4 5 Sudoeste 20 Sudoeste 0 -- -- 39
2019-06-26 20:00:00 32.9 6 Sudoeste 18 Oeste 0 -- -- 37
2019-06-26 19:00:00 34.3 5 Sudoeste 20 Oeste 0 -- -- 36
2019-06-26 18:00:00 34.3 4 Sudoeste 17 Sudoeste 0 -- -- 36
2019-06-26 17:00:00 34.4 6 Sudoeste 20 Noroeste 0 -- -- 35
2019-06-26 16:00:00 34 5 Sudoeste 20 Oeste 0 -- -- 35
2019-06-26 15:00:00 32.4 3 Sudoeste 13 Oeste 0 -- -- 39
2019-06-26 14:00:00 31.1 3 Sudoeste 15 Noroeste 0 -- -- 41
2019-06-26 13:00:00 29.7 3 Sudoeste 13 Sudoeste 0 -- -- 43
2019-06-26 12:00:00 27.7 3 Sudoeste 10 Oeste 0 -- -- 48
2019-06-26 11:00:00 24.5 3 Oeste 12 Oeste 0 -- -- 53
2019-06-26 10:00:00 22.4 3 Oeste 11 Oeste 0 -- -- 62
2019-06-26 09:00:00 21.4 0 Calma 9 Sudoeste 0 -- -- 65
2019-06-26 08:00:00 20.6 2 Sudoeste 9 Sudoeste 0 -- -- 66
2019-06-26 07:00:00 20.8 3 Sudoeste 9 Oeste 0 -- -- 62
2019-06-26 06:00:00 21.5 2 Sudoeste 8 Sudoeste 0 -- -- 59
2019-06-26 05:00:00 22.3 3 Sudoeste 15 Sur 0 -- -- 55
2019-06-26 04:00:00 23.3 4 Sudoeste 20 Noroeste 0 -- -- 50
2019-06-26 03:00:00 24.6 6 Sudoeste 23 Sudoeste 0 -- -- 45
2019-06-26 02:00:00 25.7 4 Sudoeste 18 Oeste 0 -- -- 44
2019-06-26 01:00:00 27 4 Sudoeste 15 Oeste 0 -- -- 41
2019-06-26 00:00:00 28.3 4 Sudoeste 17 Sudoeste 0 -- -- 42
2019-06-25 23:00:00 29.2 3 Sudoeste 10 Sudoeste 0 -- -- 40
2019-06-25 22:00:00 30.6 3 Sudoeste 13 Oeste 0 -- -- 37
2019-06-25 21:00:00 32.3 4 Sudoeste 19 Noroeste 0 -- -- 33
2019-06-25 20:00:00 33.9 4 Sudoeste 17 Sudoeste 0 -- -- 31
2019-06-25 19:00:00 34.8 5 Sudoeste 18 Oeste 0 -- -- 32
2019-06-25 18:00:00 35.5 8 Oeste 19 Oeste 0 -- -- 31
2019-06-25 17:00:00 34.8 5 Sudoeste 22 Oeste 0 -- -- 32
2019-06-25 16:00:00 34.3 5 Sudoeste 18 Sudoeste 0 -- -- 33
2019-06-25 15:00:00 33.1 4 Oeste 19 Oeste 0 -- -- 32
2019-06-25 14:00:00 31.1 3 Sur 9 Noroeste 0 -- -- 39
2019-06-25 13:00:00 29.7 3 Sudeste 9 Sudeste 0 -- -- 46
2019-06-25 12:00:00 27 3 Sudoeste 7 Oeste 0 -- -- 53
2019-06-25 11:00:00 23.7 0 Calma 8 Noroeste 0 -- -- 65
2019-06-25 10:00:00 21.8 2 Este 9 Noroeste 0 -- -- 70
2019-06-25 09:00:00 20.6 2 Sudoeste 6 Oeste 0 -- -- 73
2019-06-25 08:00:00 19.9 0 Calma 5 Sudoeste 0 -- -- 72
2019-06-25 07:00:00 19.9 0 Calma 4 Oeste 0 -- -- 68
2019-06-25 06:00:00 20.5 0 Calma 7 Oeste 0 -- -- 66
2019-06-25 05:00:00 21.3 0 Calma 11 Noroeste 0 -- -- 64
2019-06-25 04:00:00 22.2 5 Oeste 15 Oeste 0 -- -- 59
2019-06-25 03:00:00 23.2 4 Oeste 13 Oeste 0 -- -- 55
2019-06-25 02:00:00 23.8 4 Sudoeste 16 Sudoeste 0 -- -- 52
2019-06-25 01:00:00 24.3 3 Sudoeste 11 Noroeste 0 -- -- 49
2019-06-25 00:00:00 25 0 Calma 6 Oeste 0 -- -- 44
2019-06-24 23:00:00 26.7 2 Sudoeste 12 Sudoeste 0 -- -- 40
2019-06-24 22:00:00 28.1 3 Sudoeste 17 Oeste 0 -- -- 37
2019-06-24 21:00:00 29.6 4 Sudoeste 24 Noroeste 0 -- -- 30
2019-06-24 20:00:00 31.3 5 Oeste 23 Oeste -- -- -- 31
2019-06-24 19:00:00 32.5 7 Sudoeste 27 Oeste 0 -- -- 31
2019-06-24 18:00:00 32.8 5 Sudoeste 22 Sudoeste 0 -- -- 33
2019-06-24 17:00:00 32.3 5 Sudoeste 20 Sudoeste 0 -- -- 33
2019-06-24 16:00:00 31.1 4 Sudoeste 14 Oeste 0 -- -- 37
2019-06-24 15:00:00 28 4 Sudoeste 15 Oeste 0 -- -- 39
2019-06-24 14:00:00 28.7 4 Sudoeste 13 Oeste 0 -- -- 38
2019-06-24 13:00:00 28 4 Sudoeste 16 Sudoeste 0 -- -- 38
2019-06-24 12:00:00 25.7 4 Sudoeste 13 Sudoeste 0 -- -- 44
2019-06-24 11:00:00 24.4 3 Sudoeste 14 Sudoeste 0 -- -- 47
2019-06-24 10:00:00 23.1 3 Sur 8 Oeste 0 -- -- 48
2019-06-24 09:00:00 21.8 3 Sudoeste 9 Oeste 0 -- -- 53
2019-06-24 08:00:00 20.5 0 Calma 6 Sudoeste 0 -- -- 61
2019-06-24 07:00:00 20.8 0 Calma 8 Noroeste 0 -- -- 59
2019-06-24 06:00:00 21.8 4 Oeste 10 Oeste 0 -- -- 58
2019-06-24 05:00:00 22.6 3 Sudoeste 15 Sudoeste 0 -- -- 58
2019-06-24 04:00:00 23.4 3 Sudoeste 14 Oeste 0 -- -- 58
2019-06-24 03:00:00 24.3 4 Oeste 17 Sudoeste 0 -- -- 55
2019-06-24 02:00:00 25.2 3 Sudoeste 13 Sudoeste 0 -- -- 51
2019-06-24 01:00:00 26.2 4 Sudoeste 18 Sur 0 -- -- 47
2019-06-24 00:00:00 27.4 4 Sudoeste 15 Sudoeste 0 -- -- 41
2019-06-23 23:00:00 28.3 3 Sudoeste 15 Sudoeste 0 -- -- 35
2019-06-23 22:00:00 29.8 4 Sudoeste 17 Sudoeste 0 -- -- 31
2019-06-23 21:00:00 31.4 6 Sudoeste 23 Oeste 0 -- -- 31
2019-06-23 20:00:00 33.4 6 Sudoeste 24 Sudoeste 0 -- -- 29
2019-06-23 19:00:00 34.5 8 Sudoeste 24 Sudoeste 0 -- -- 28
2019-06-23 18:00:00 36 8 Oeste 19 Oeste 0 -- -- 27
2019-06-23 17:00:00 35.8 6 Sudoeste 18 Noroeste 0 -- -- 26
2019-06-23 16:00:00 35.6 4 Sur 13 Sudeste 0 -- -- 26
2019-06-23 15:00:00 34.1 4 Sudoeste 12 Oeste 0 -- -- 26
2019-06-23 14:00:00 33 3 Este 14 Nordeste 0 -- -- 29
2019-06-23 13:00:00 31.2 5 Norte 12 Nordeste 0 -- -- 32
2019-06-23 12:00:00 28.6 4 Sudeste 13 Este 0 -- -- 37
2019-06-23 11:00:00 24.8 4 Nordeste 13 Este 0 -- -- 43
2019-06-23 10:00:00 21.9 2 Sudeste 7 Nordeste 0 -- -- 52
2019-06-23 09:00:00 20.4 0 Calma 5 Oeste 0 -- -- 55
2019-06-23 08:00:00 19.1 0 Calma 2 Oeste 0 -- -- 57
2019-06-23 07:00:00 19.4 0 Calma 5 Sudoeste 0 -- -- 53
2019-06-23 06:00:00 20.5 2 Sudoeste 9 Oeste 0 -- -- 49
2019-06-23 05:00:00 21.8 10 Oeste 20 Oeste 0 -- -- 46
2019-06-23 04:00:00 22.7 9 Oeste 20 Oeste 0 -- -- 44
2019-06-23 03:00:00 23.6 3 Oeste 20 Sudoeste 0 -- -- 49
2019-06-23 02:00:00 24.5 5 Sudoeste 22 Oeste 0 -- -- 47
2019-06-23 01:00:00 25.8 5 Sudoeste 22 Sur 0 -- -- 39
2019-06-23 00:00:00 25.8 2 Sudoeste 5 Oeste 0 -- -- 36
2019-06-22 23:00:00 27.3 0 Calma 6 Oeste 0 -- -- 34
2019-06-22 22:00:00 29.9 5 Oeste 16 Oeste 0 -- -- 30
2019-06-22 21:00:00 31.8 4 Sudoeste 19 Oeste 0 -- -- 28
2019-06-22 20:00:00 33.7 5 Oeste 22 Oeste 0 -- -- 27
2019-06-22 19:00:00 34.3 5 Oeste 19 Oeste 0 -- -- 25
2019-06-22 18:00:00 34.3 3 Sudoeste 19 Oeste 0 -- -- 28
2019-06-22 17:00:00 33.4 6 Noroeste 19 Oeste 0 -- -- 27
2019-06-22 16:00:00 33.1 6 Oeste 18 Este 0 -- -- 28
2019-06-22 15:00:00 32.7 6 Oeste 15 Oeste 0 -- -- 30
2019-06-22 14:00:00 31.2 4 Oeste 14 Oeste 0 -- -- 29
2019-06-22 13:00:00 29.5 3 Sur 15 Sudoeste 0 -- -- 32
2019-06-22 12:00:00 27.1 3 Sudoeste 12 Oeste 0 -- -- 39
2019-06-22 11:00:00 23.8 3 Sudoeste 8 Sudeste 0 -- -- 45
2019-06-22 10:00:00 20.8 2 Sur 5 Norte 0 -- -- 50
2019-06-22 09:00:00 18.4 3 Este 6 Este 0 -- -- 58
2019-06-22 08:00:00 17.3 0 Calma 2 Sudoeste 0 -- -- 59
2019-06-22 07:00:00 17.5 0 Calma 2 Sudoeste 0 -- -- 54
2019-06-22 06:00:00 18.3 0 Calma 3 Sudeste 0 -- -- 51
2019-06-22 05:00:00 19.4 0 Calma 2 Sudoeste 0 -- -- 48
2019-06-22 04:00:00 20.4 0 Calma 6 Oeste 0 -- -- 44
2019-06-22 03:00:00 21.1 2 Oeste 8 Sudoeste 0 -- -- 38
2019-06-22 02:00:00 22 2 Oeste 6 Oeste 0 -- -- 34
2019-06-22 01:00:00 23.3 3 Oeste 8 Noroeste 0 -- -- 32
2019-06-22 00:00:00 23.9 2 Oeste 5 Oeste 0 -- -- 34
2019-06-21 23:00:00 25.6 0 Calma 14 Oeste 0 -- -- 31
2019-06-21 22:00:00 27.4 6 Oeste 13 Oeste 0 -- -- 29
2019-06-21 21:00:00 28.6 3 Sudoeste 10 Sudoeste 0 -- -- 27
2019-06-21 20:00:00 30.7 3 Sudoeste 15 Noroeste 0 -- -- 26
2019-06-21 19:00:00 31 4 Sudoeste 15 Oeste 0 -- -- 23
2019-06-21 18:00:00 31.3 4 Sudoeste 18 Sudoeste 0 -- -- 25
2019-06-21 17:00:00 31.3 3 Sudoeste 13 Oeste 0 -- -- 29
2019-06-21 16:00:00 30.2 4 Sudoeste 18 Noroeste 0 -- -- 32
2019-06-21 15:00:00 29.5 3 Sudoeste 16 Noroeste 0 -- -- 36
2019-06-21 14:00:00 28.1 4 Sur 15 Sudoeste 0 -- -- 39
2019-06-21 13:00:00 26.7 4 Noroeste 10 Sudoeste 0 -- -- 43
2019-06-21 12:00:00 24.4 2 Sudoeste 9 Sudoeste 0 -- -- 48
2019-06-21 11:00:00 21.4 3 Noroeste 7 Este 0 -- -- 56
2019-06-21 10:00:00 19.3 2 Sudoeste 11 Noroeste 0 -- -- 63
2019-06-21 09:00:00 17.9 4 Oeste 11 Oeste 0 -- -- 67
2019-06-21 08:00:00 16.8 3 Sudoeste 8 Sudoeste 0 -- -- 69
2019-06-21 07:00:00 16.7 0 Calma 9 Oeste 0 -- -- 69
2019-06-21 06:00:00 17.3 0 Calma 10 Oeste 0 -- -- 66
2019-06-21 05:00:00 18 2 Sudoeste 12 Sudoeste 0 -- -- 63
2019-06-21 04:00:00 18.9 3 Sudoeste 15 Oeste 0 -- -- 61
2019-06-21 03:00:00 19.7 5 Sudoeste 21 Oeste 0 -- -- 59
2019-06-21 02:00:00 20.8 5 Oeste 20 Sudoeste 0 -- -- 58
2019-06-21 01:00:00 21.8 5 Sudoeste 22 Oeste 0 -- -- 57
2019-06-21 00:00:00 22.9 5 Sudoeste 18 Oeste 0 -- -- 53
2019-06-20 23:00:00 23.6 0 Calma 20 Oeste 0 -- -- 46
2019-06-20 22:00:00 24.8 5 Sudoeste 23 Sudoeste 0 -- -- 40
2019-06-20 21:00:00 26.3 7 Sudoeste 23 Sudoeste 0 -- -- 38
2019-06-20 20:00:00 28.2 6 Sudoeste 24 Sudoeste 0 -- -- 36
2019-06-20 19:00:00 29.5 6 Sudoeste 24 Sudoeste 0 -- -- 34
2019-06-20 18:00:00 30.2 5 Sudoeste 26 Oeste 0 -- -- 36
2019-06-20 17:00:00 30.7 8 Oeste 22 Noroeste 0 -- -- 36
2019-06-20 16:00:00 30 5 Oeste 16 Sudoeste 0 -- -- 38
2019-06-20 15:00:00 28.3 5 Sudoeste 17 Sudoeste 0 -- -- 42
2019-06-20 14:00:00 26.9 4 Sudoeste 12 Noroeste 0 -- -- 48
2019-06-20 13:00:00 24.9 4 Sudoeste 13 Sudoeste 0 -- -- 56
2019-06-20 12:00:00 22.8 3 Sudoeste 15 Sudoeste 0 -- -- 62
2019-06-20 11:00:00 20 3 Sudoeste 15 Sudoeste 0 -- -- 73
2019-06-20 10:00:00 18.7 3 Sudoeste 13 Oeste 0 -- -- 78
2019-06-20 09:00:00 18 4 Sudoeste 13 Sudoeste 0 -- -- 80
2019-06-20 08:00:00 17.1 4 Oeste 12 Noroeste 0 -- -- 82
2019-06-20 07:00:00 17.1 3 Oeste 12 Sudoeste 0 -- -- 81
2019-06-20 06:00:00 17.5 3 Sudoeste 14 Oeste 0 -- -- 77
2019-06-20 05:00:00 18.2 2 Sudoeste 12 Noroeste 0 -- -- 73
2019-06-20 04:00:00 18.9 3 Sudoeste 16 Sudoeste 0 -- -- 71
2019-06-20 03:00:00 20 4 Sudoeste 17 Norte 0 -- -- 67
2019-06-20 02:00:00 21.2 4 Sudoeste 22 Sudoeste 0 -- -- 64
2019-06-20 01:00:00 22.8 6 Sudoeste 21 Noroeste 0 -- -- 57
2019-06-20 00:00:00 22.6 2 Sudoeste 15 Noroeste 0 -- -- 43
2019-06-19 23:00:00 23.3 2 Sudoeste 6 Oeste 0 -- -- 40
2019-06-19 22:00:00 25.3 0 Calma 15 Oeste 0 -- -- 39
2019-06-19 21:00:00 27.5 4 Sudoeste 17 Oeste 0 -- -- 33
2019-06-19 20:00:00 29 4 Sudoeste 16 Sudoeste 0 -- -- 31
2019-06-19 19:00:00 29.5 4 Sudoeste 19 Oeste 0 -- -- 34
2019-06-19 18:00:00 29.8 5 Sudoeste 21 Oeste 0 -- -- 34
2019-06-19 17:00:00 29.4 4 Sudoeste 21 Oeste 0 -- -- 37
2019-06-19 16:00:00 28.2 5 Sudoeste 18 Sudoeste 0 -- -- 37
2019-06-19 15:00:00 26.7 4 Sudoeste 14 Noroeste 0 -- -- 47
2019-06-19 14:00:00 25 5 Oeste 15 Sudoeste 0 -- -- 51
2019-06-19 13:00:00 23.4 4 Sudoeste 14 Sur 0 -- -- 59
2019-06-19 12:00:00 20.3 4 Sudoeste 11 Sudoeste 0 -- -- 70
2019-06-19 11:00:00 18.4 3 Sudoeste 9 Oeste 0 -- -- 79
2019-06-19 10:00:00 17.9 3 Sudoeste 11 Oeste 0 -- -- 81
2019-06-19 09:00:00 17.6 3 Sudoeste 19 Oeste 0 -- -- 81
2019-06-19 08:00:00 17.7 3 Sudoeste 14 Sudoeste 0 -- -- 80
2019-06-19 07:00:00 17.6 3 Sudoeste 16 Oeste 0 -- -- 80
2019-06-19 06:00:00 17.8 4 Sudoeste 12 Sudoeste 0 -- -- 78
2019-06-19 05:00:00 18.3 0 Calma 14 Sudoeste 0 -- -- 74
2019-06-19 04:00:00 19.1 4 Sudoeste 18 Oeste 0 -- -- 71
2019-06-19 03:00:00 20 5 Oeste 20 Oeste 0 -- -- 67
2019-06-19 02:00:00 20.8 5 Sudoeste 18 Sudoeste 0 -- -- 64
2019-06-19 01:00:00 21.7 3 Sudoeste 12 Oeste 0 -- -- 60
2019-06-19 00:00:00 22.7 4 Sudoeste 16 Sudoeste 0 -- -- 54
2019-06-18 23:00:00 23.9 2 Sudoeste 12 Sudoeste 0 -- -- 49
2019-06-18 22:00:00 25.4 3 Sudoeste 27 Oeste 0 -- -- 39
2019-06-18 21:00:00 27 7 Oeste 30 Oeste 0 -- -- 31
2019-06-18 20:00:00 28.8 9 Oeste 32 Oeste 0 -- -- 25
2019-06-18 19:00:00 29.7 9 Sudoeste 31 Noroeste 0 -- -- 25
2019-06-18 18:00:00 30.4 12 Oeste 33 Noroeste 0 -- -- 25
2019-06-18 17:00:00 30.3 11 Oeste 36 Oeste 0 -- -- 26
2019-06-18 16:00:00 29.7 10 Sudoeste 28 Oeste 0 -- -- 31
2019-06-18 15:00:00 28.7 10 Oeste 29 Oeste 0 -- -- 34
2019-06-18 14:00:00 27.6 5 Sudoeste 23 Sudoeste 0 -- -- 35
2019-06-18 13:00:00 26.8 5 Sudoeste 22 Oeste 0 -- -- 36
2019-06-18 12:00:00 25.1 4 Sudoeste 17 Oeste 0 -- -- 39
2019-06-18 11:00:00 21.9 4 Sudoeste 12 Oeste 0 -- -- 47
2019-06-18 10:00:00 20.1 2 Sudoeste 9 Oeste 0 -- -- 54
2019-06-18 09:00:00 18.7 3 Oeste 9 Sudoeste 0 -- -- 58
2019-06-18 08:00:00 17.5 0 Calma 4 Oeste 0 -- -- 60
2019-06-18 07:00:00 17.7 0 Calma 3 Sudoeste 0 -- -- 58
2019-06-18 06:00:00 18.5 0 Calma 4 Sudoeste 0 -- -- 56
2019-06-18 05:00:00 19.7 0 Calma 10 Sudoeste 0 -- -- 51
2019-06-18 04:00:00 20.5 4 Sudoeste 11 Sudoeste 0 -- -- 49
2019-06-18 03:00:00 21 0 Calma 8 Oeste 0 -- -- 49
2019-06-18 02:00:00 22.4 3 Sudoeste 11 Sudoeste 0 -- -- 44
2019-06-18 01:00:00 23.9 4 Sudoeste 14 Oeste 0 -- -- 39
2019-06-18 00:00:00 24.7 3 Sudoeste 13 Sudoeste 0 -- -- 35
2019-06-17 23:00:00 25.1 2 Sudoeste 10 Oeste 0 -- -- 34
2019-06-17 22:00:00 27.8 2 Sudoeste 19 Oeste 0 -- -- 29
2019-06-17 21:00:00 30 9 Oeste 22 Oeste 0 -- -- 25
2019-06-17 20:00:00 31.8 7 Oeste 26 Noroeste 0 -- -- 24
2019-06-17 19:00:00 32.4 6 Oeste 22 Noroeste 0 -- -- 24
2019-06-17 18:00:00 32.8 7 Oeste 24 Oeste 0 -- -- 23
2019-06-17 17:00:00 33 8 Oeste 17 Noroeste 0 -- -- 24
2019-06-17 16:00:00 32.1 5 Sudoeste 16 Sudoeste 0 -- -- 27
2019-06-17 15:00:00 30.9 5 Noroeste 17 Noroeste -- -- -- 25
2019-06-17 14:00:00 29.2 3 Sudeste 8 Nordeste 0 -- -- 32
2019-06-17 13:00:00 27.3 2 Sur 9 Nordeste 0.2 -- -- 36
2019-06-17 12:00:00 25.1 4 Oeste 8 Noroeste 0 -- -- 38
2019-06-17 11:00:00 21.7 2 Sur 8 Sudeste 0 -- -- 48
2019-06-17 10:00:00 19.3 3 Este 7 Este 0 -- -- 53
2019-06-17 09:00:00 17.3 2 Noroeste 5 Nordeste 0 -- -- 55
2019-06-17 08:00:00 16.2 0 Calma 4 Sudeste 0 -- -- 60
2019-06-17 07:00:00 16 0 Calma 3 Sudoeste 0 -- -- 57
2019-06-17 06:00:00 16.9 0 Calma 4 Sudoeste 0 -- -- 54
2019-06-17 05:00:00 18.1 0 Calma 7 Oeste 0 -- -- 52
2019-06-17 04:00:00 19.6 3 Oeste 15 Oeste 0 -- -- 49
2019-06-17 03:00:00 20.7 4 Sudoeste 19 Sudoeste 0 -- -- 47
2019-06-17 02:00:00 21.5 4 Sudoeste 17 Oeste 0 -- -- 45
2019-06-17 01:00:00 22.3 3 Sudoeste 14 Sudoeste 0 -- -- 42
2019-06-17 00:00:00 21.7 0 Calma 5 Oeste 0 -- -- 38
2019-06-16 23:00:00 23.5 0 Calma 5 Oeste 0 -- -- 33
2019-06-16 22:00:00 25.9 2 Oeste 13 Oeste 0 -- -- 30
2019-06-16 21:00:00 27.9 6 Oeste 14 Oeste 0 -- -- 27
2019-06-16 20:00:00 29.1 3 Sudoeste 22 Sudoeste 0 -- -- 24
2019-06-16 19:00:00 29.8 6 Sudoeste 19 Oeste 0 -- -- 25
2019-06-16 18:00:00 29.3 5 Sudoeste 17 Sudoeste 0 -- -- 24
2019-06-16 17:00:00 29.8 5 Sudoeste 21 Oeste 0 -- -- 24
2019-06-16 16:00:00 29 6 Oeste 14 Oeste 0 -- -- 25
2019-06-16 15:00:00 27.2 3 Sudoeste 13 Oeste 0 -- -- 30
2019-06-16 14:00:00 27.1 3 Sudoeste 9 Oeste 0 -- -- 29
2019-06-16 13:00:00 27 0 Calma 12 Sudeste 0 -- -- 31
2019-06-16 12:00:00 25.9 0 Calma 8 Sudeste 0 -- -- 30
2019-06-16 11:00:00 22.2 2 Sudeste 9 Este 0 -- -- 35
2019-06-16 10:00:00 19.3 3 Sudeste 7 Sudeste 0 -- -- 44
2019-06-16 09:00:00 17 2 Nordeste 5 Este 0 -- -- 49
2019-06-16 08:00:00 15.6 0 Calma 5 Nordeste 0 -- -- 50
2019-06-16 07:00:00 15.2 0 Calma 2 Noroeste 0 -- -- 48
2019-06-16 06:00:00 16.2 0 Calma 4 Norte 0 -- -- 46
2019-06-16 05:00:00 17.4 2 Norte 6 Este 0 -- -- 41
2019-06-16 04:00:00 17.8 4 Este 9 Este 0 -- -- 40
2019-06-16 03:00:00 18.7 0 Calma 5 Nordeste 0 -- -- 39
2019-06-16 02:00:00 19.7 0 Calma 3 Oeste 0 -- -- 39
2019-06-16 01:00:00 20.6 0 Calma 4 Norte 0 -- -- 38
2019-06-16 00:00:00 21.7 0 Calma 5 Oeste 0 -- -- 35
2019-06-15 23:00:00 22.7 0 Calma 5 Oeste 0 -- -- 33
2019-06-15 22:00:00 24.4 2 Oeste 12 Sudoeste 0 -- -- 30
2019-06-15 21:00:00 26.6 3 Sudoeste 12 Oeste 0 -- -- 30
2019-06-15 20:00:00 28.2 3 Sudoeste 12 Oeste 0 -- -- 29
2019-06-15 19:00:00 29.2 2 Sudoeste 16 Oeste 0 -- -- 26
2019-06-15 18:00:00 29.2 4 Sur 13 Oeste 0 -- -- 27
2019-06-15 17:00:00 28.4 4 Sudoeste 13 Oeste 0 -- -- 28
2019-06-15 16:00:00 27.9 2 Oeste 16 Oeste 0 -- -- 27
2019-06-15 15:00:00 27.1 7 Este 17 Este 0 -- -- 29
2019-06-15 14:00:00 24.7 4 Norte 10 Oeste 0 -- -- 31
2019-06-15 13:00:00 23.7 2 Sur 12 Sudeste 0 -- -- 37
2019-06-15 12:00:00 22.1 3 Sudeste 13 Sudeste 0 -- -- 40
2019-06-15 11:00:00 18.6 4 Este 14 Sudeste 0 -- -- 53
2019-06-15 10:00:00 15.7 3 Sudeste 8 Este 0 -- -- 63
2019-06-15 09:00:00 14 0 Calma 7 Este 0 -- -- 67
2019-06-15 08:00:00 13.1 0 Calma 8 Noroeste 0 -- -- 69
2019-06-15 07:00:00 12.8 0 Calma 5 Sudoeste 0 -- -- 67
2019-06-15 06:00:00 13.5 0 Calma 4 Oeste 0 -- -- 65
2019-06-15 05:00:00 14.7 0 Calma 13 Oeste 0 -- -- 61
2019-06-15 04:00:00 15.4 3 Oeste 15 Oeste 0 -- -- 59
2019-06-15 03:00:00 16.1 3 Sudoeste 13 Sudoeste 0 -- -- 57
2019-06-15 02:00:00 16.9 5 Sudoeste 18 Sudoeste 0 -- -- 55
2019-06-15 01:00:00 18.1 6 Sudoeste 23 Oeste 0 -- -- 52
2019-06-15 00:00:00 19 4 Sudoeste 21 Sudoeste 0 -- -- 49
2019-06-14 23:00:00 20.2 4 Sudoeste 20 Oeste 0 -- -- 43
2019-06-14 22:00:00 21 3 Sudoeste 20 Sudoeste 0 -- -- 40
2019-06-14 21:00:00 22 5 Sudoeste 29 Oeste 0 -- -- 37
2019-06-14 20:00:00 23.6 8 Sudoeste 27 Sudoeste 0 -- -- 34
2019-06-14 19:00:00 24.3 7 Sudoeste 35 Oeste 0 -- -- 33
2019-06-14 18:00:00 25 7 Sudoeste 24 Oeste 0 -- -- 31
2019-06-14 17:00:00 25.5 8 Sudoeste 31 Oeste 0 -- -- 31
2019-06-14 16:00:00 25.2 10 Sudoeste 34 Oeste 0 -- -- 33
2019-06-14 15:00:00 24.8 9 Sudoeste 32 Oeste 0 -- -- 36
2019-06-14 14:00:00 23.8 10 Sudoeste 36 Oeste 0 -- -- 42
2019-06-14 13:00:00 22.8 11 Oeste 33 Oeste 0 -- -- 48
2019-06-14 12:00:00 21.8 12 Oeste 31 Oeste 0 -- -- 51
2019-06-14 11:00:00 19.6 6 Sudoeste 21 Sudoeste 0 -- -- 54
2019-06-14 10:00:00 18.4 6 Sudoeste 23 Sudoeste 0 -- -- 58
2019-06-14 09:00:00 18.4 6 Sudoeste 22 Sudoeste 0 -- -- 56
2019-06-14 08:00:00 17.8 3 Sudoeste 13 Sudoeste 0 -- -- 54
2019-06-14 07:00:00 17.7 4 Sudoeste 24 Oeste 0 -- -- 52
2019-06-14 06:00:00 18.4 5 Sudoeste 19 Sudoeste 0 -- -- 48
2019-06-14 05:00:00 19.2 4 Sudoeste 24 Sudoeste 0 -- -- 44
2019-06-14 04:00:00 20.1 7 Sudoeste 29 Sudoeste 0 -- -- 42
2019-06-14 03:00:00 21 6 Sudoeste 23 Sudoeste 0 -- -- 46
2019-06-14 02:00:00 21.9 5 Sudoeste 23 Noroeste 0 -- -- 46
2019-06-14 01:00:00 23.3 8 Sudoeste 27 Oeste 0 -- -- 35
2019-06-14 00:00:00 24.1 5 Sudoeste 17 Oeste 0 -- -- 41
2019-06-13 23:00:00 24.6 5 Oeste 18 Oeste 0 -- -- 43
2019-06-13 22:00:00 25.5 5 Oeste 21 Noroeste 0 -- -- 41
2019-06-13 21:00:00 26.9 8 Oeste 22 Noroeste 0 -- -- 39
2019-06-13 20:00:00 28 5 Sudoeste 19 Oeste 0 -- -- 38
2019-06-13 19:00:00 29 5 Sudoeste 28 Oeste 0 -- -- 38
2019-06-13 18:00:00 29.7 6 Oeste 24 Noroeste 0 -- -- 37
2019-06-13 17:00:00 29.2 5 Oeste 22 Oeste 0 -- -- 38
2019-06-13 16:00:00 29 6 Noroeste 20 Noroeste 0 -- -- 36
2019-06-13 15:00:00 27.6 4 Sudoeste 13 Noroeste 0 -- -- 39
2019-06-13 14:00:00 26.5 3 Norte 12 Norte 0 -- -- 41
2019-06-13 13:00:00 24.9 6 Nordeste 13 Norte 0 -- -- 52
2019-06-13 12:00:00 22.3 5 Sudeste 13 Este 0 -- -- 57
2019-06-13 11:00:00 20.4 3 Sudeste 9 Este 0 -- -- 63
2019-06-13 10:00:00 19.1 5 Este 9 Sudeste 0 -- -- 68
2019-06-13 09:00:00 17.9 2 Sudeste 5 Sudeste 0 -- -- 73
2019-06-13 08:00:00 17.1 0 Calma 5 Oeste 0 -- -- 73
2019-06-13 07:00:00 17.3 4 Oeste 19 Noroeste 0 -- -- 71
2019-06-13 06:00:00 17.9 7 Oeste 18 Noroeste 0 -- -- 68
2019-06-13 05:00:00 18.7 7 Oeste 21 Oeste 0 -- -- 64
2019-06-13 04:00:00 19.5 4 Oeste 18 Sudoeste 0 -- -- 58
2019-06-13 03:00:00 20.3 5 Oeste 23 Noroeste 0 -- -- 54
2019-06-13 02:00:00 20.3 5 Sudoeste 17 Sudoeste 0 -- -- 50
2019-06-13 01:00:00 20.4 2 Oeste 4 Noroeste 0 -- -- 43
2019-06-13 00:00:00 21.4 0 Calma 6 Oeste 0 -- -- 41
2019-06-12 23:00:00 22.7 0 Calma 4 Oeste 0 -- -- 38
2019-06-12 22:00:00 25.2 0 Calma 16 Oeste 0 -- -- 34
2019-06-12 21:00:00 26.8 6 Oeste 20 Oeste 0 -- -- 31
2019-06-12 20:00:00 28.5 8 Oeste 22 Oeste 0 -- -- 30
2019-06-12 19:00:00 29.2 8 Oeste 23 Oeste 0 -- -- 30
2019-06-12 18:00:00 29.2 6 Oeste 20 Oeste 0 -- -- 30
2019-06-12 17:00:00 29 3 Sur 21 Oeste 0 -- -- 30
2019-06-12 16:00:00 28.1 3 Sur 17 Oeste 0 -- -- 33
2019-06-12 15:00:00 27.9 4 Sudoeste 18 Oeste 0 -- -- 32
2019-06-12 14:00:00 26.6 4 Oeste 21 Oeste 0 -- -- 36
2019-06-12 13:00:00 25.7 4 Oeste 19 Sudoeste 0 -- -- 39
2019-06-12 12:00:00 24 4 Sudoeste 11 Sur 0 -- -- 43
2019-06-12 11:00:00 21.3 3 Sudoeste 13 Oeste 0 -- -- 48
2019-06-12 10:00:00 19.6 2 Sudoeste 11 Nordeste 0 -- -- 51
2019-06-12 09:00:00 18.4 8 Nordeste 17 Nordeste 0 -- -- 56
2019-06-12 08:00:00 17.3 9 Nordeste 16 Norte 0 -- -- 52
2019-06-12 07:00:00 17.1 8 Nordeste 17 Nordeste 0 -- -- 49
2019-06-12 06:00:00 17.4 12 Nordeste 19 Nordeste 0 -- -- 44
2019-06-12 05:00:00 17.2 8 Nordeste 15 Nordeste 0 -- -- 38
2019-06-12 04:00:00 18.1 6 Nordeste 21 Nordeste 0 -- -- 33
2019-06-12 03:00:00 18.6 9 Nordeste 17 Nordeste 0 -- -- 31
2019-06-12 02:00:00 19.2 6 Nordeste 16 Nordeste 0 -- -- 33
2019-06-12 01:00:00 20.1 9 Nordeste 19 Nordeste 0 -- -- 33
2019-06-12 00:00:00 21 9 Nordeste 24 Nordeste 0 -- -- 33
2019-06-11 23:00:00 22 13 Nordeste 31 Nordeste 0 -- -- 33
2019-06-11 22:00:00 23.3 12 Nordeste 35 Nordeste 0 -- -- 33
2019-06-11 21:00:00 25.3 13 Nordeste 33 Norte 0 -- -- 30
2019-06-11 20:00:00 28.6 12 Nordeste 24 Nordeste 0 -- -- 27
2019-06-11 19:00:00 29.1 8 Oeste 23 Oeste 0 -- -- 25
2019-06-11 18:00:00 29 10 Oeste 27 Oeste 0 -- -- 25
2019-06-11 17:00:00 28.8 8 Sudoeste 23 Oeste 0 -- -- 30
2019-06-11 16:00:00 28.2 5 Sudoeste 21 Sudoeste 0 -- -- 34
2019-06-11 15:00:00 26.9 4 Sudoeste 16 Sudoeste 0 -- -- 34
2019-06-11 14:00:00 25.9 4 Sudoeste 20 Sudoeste 0 -- -- 35
2019-06-11 13:00:00 24.3 6 Sudoeste 26 Sudoeste 0 -- -- 39
2019-06-11 12:00:00 22.4 5 Sudoeste 17 Oeste 0 -- -- 48
2019-06-11 11:00:00 19.3 5 Sudoeste 16 Sudoeste 0 -- -- 56
2019-06-11 10:00:00 17.2 4 Sudoeste 15 Oeste 0 -- -- 67
2019-06-11 09:00:00 15.8 4 Oeste 13 Oeste 0 -- -- 74
2019-06-11 08:00:00 14.8 5 Oeste 11 Noroeste 0 -- -- 75
2019-06-11 07:00:00 14.6 0 Calma 9 Oeste 0 -- -- 73
2019-06-11 06:00:00 15.2 0 Calma 10 Sudoeste 0 -- -- 71
2019-06-11 05:00:00 15.8 3 Sudoeste 16 Oeste 0 -- -- 68
2019-06-11 04:00:00 16.5 4 Sudoeste 18 Sudoeste 0 -- -- 65
2019-06-11 03:00:00 17.3 5 Sudoeste 18 Oeste 0 -- -- 61
2019-06-11 02:00:00 18.5 5 Sudoeste 25 Sudoeste 0 -- -- 56
2019-06-11 01:00:00 19.7 5 Sudoeste 26 Sudoeste 0 -- -- 52
2019-06-11 00:00:00 21.3 7 Sudoeste 22 Sudoeste 0 -- -- 46
2019-06-10 23:00:00 22.7 7 Sudoeste 21 Sudoeste 0 -- -- 41
2019-06-10 22:00:00 25.2 3 Oeste 17 Noroeste 0 -- -- 27
2019-06-10 21:00:00 26.7 5 Oeste 19 Oeste 0 -- -- 25
2019-06-10 20:00:00 28.1 6 Sudoeste 22 Oeste 0 -- -- 26
2019-06-10 19:00:00 28.5 6 Sudoeste 22 Sudoeste 0 -- -- 28
2019-06-10 18:00:00 29.1 6 Sudoeste 24 Oeste 0 -- -- 28
2019-06-10 17:00:00 29 5 Sudoeste 18 Sudoeste 0 -- -- 30
2019-06-10 16:00:00 28.3 4 Sudoeste 18 Oeste 0 -- -- 31
2019-06-10 15:00:00 27.1 3 Sudoeste 16 Sudoeste 0 -- -- 31
2019-06-10 14:00:00 25.9 3 Sudoeste 15 Sudoeste 0 -- -- 35
2019-06-10 13:00:00 24.9 5 Sudoeste 24 Oeste 0 -- -- 32
2019-06-10 12:00:00 23.5 5 Sudoeste 17 Oeste 0 -- -- 39
2019-06-10 11:00:00 20.4 3 Oeste 13 Oeste 0 -- -- 49
2019-06-10 10:00:00 18.2 2 Sudoeste 11 Sudoeste 0 -- -- 53
2019-06-10 09:00:00 16.4 3 Sudoeste 14 Oeste 0 -- -- 59
2019-06-10 08:00:00 15.1 5 Oeste 10 Oeste 0 -- -- 62
2019-06-10 07:00:00 14.9 0 Calma 5 Sudoeste 0 -- -- 62
2019-06-10 06:00:00 15.9 0 Calma 10 Oeste 0 -- -- 58
2019-06-10 05:00:00 16.5 3 Oeste 9 Oeste 0 -- -- 55
2019-06-10 04:00:00 16.8 3 Sudoeste 8 Sudoeste 0 -- -- 54
2019-06-10 03:00:00 17.5 0 Calma 13 Sudoeste 0 -- -- 52
2019-06-10 02:00:00 18.8 4 Sudoeste 14 Noroeste 0 -- -- 48
2019-06-10 01:00:00 20.3 5 Sudoeste 22 Oeste 0 -- -- 43
2019-06-10 00:00:00 21.6 4 Sudoeste 27 Sudoeste 0 -- -- 39
2019-06-09 23:00:00 23.3 6 Sudoeste 27 Sudoeste 0 -- -- 35
2019-06-09 22:00:00 24.9 3 Sudoeste 15 Oeste 0 -- -- 34
2019-06-09 21:00:00 26.3 4 Sudoeste 22 Oeste 0 -- -- 34
2019-06-09 20:00:00 27.5 5 Sudoeste 21 Sudoeste -- -- -- 34
2019-06-09 19:00:00 28.1 6 Sudoeste 27 Oeste 0 -- -- 32
2019-06-09 18:00:00 28.8 5 Sudoeste 20 Sudoeste 0 -- -- 32
2019-06-09 17:00:00 28.8 6 Sudoeste 22 Sudoeste 0 -- -- 34
2019-06-09 16:00:00 28.2 7 Sudoeste 25 Noroeste 0 -- -- 36
2019-06-09 15:00:00 27.3 6 Sudoeste 24 Oeste 0 -- -- 39
2019-06-09 14:00:00 26.8 8 Oeste 21 Oeste 0 -- -- 40
2019-06-09 13:00:00 26.2 5 Sudoeste 19 Noroeste 0 -- -- 40
2019-06-09 12:00:00 24.5 5 Sudoeste 18 Sudoeste 0 -- -- 42
2019-06-09 11:00:00 21.5 4 Sudoeste 15 Sudoeste 0 -- -- 51
2019-06-09 10:00:00 19.3 3 Sudoeste 17 Sudoeste 0 -- -- 56
2019-06-09 09:00:00 17.9 4 Sudoeste 15 Sudoeste 0 -- -- 56
2019-06-09 08:00:00 17.9 3 Sudoeste 11 Sudoeste 0 -- -- 54
2019-06-09 07:00:00 18.3 2 Sudoeste 12 Oeste 0 -- -- 52
2019-06-09 06:00:00 19.1 3 Oeste 19 Sudoeste 0 -- -- 49
2019-06-09 05:00:00 20 8 Sudoeste 22 Oeste 0 -- -- 47
2019-06-09 04:00:00 20.7 4 Sudoeste 16 Oeste 0 -- -- 46
2019-06-09 03:00:00 21.6 6 Sudoeste 26 Oeste 0 -- -- 46
2019-06-09 02:00:00 22.4 4 Sudoeste 15 Sudoeste 0 -- -- 46
2019-06-09 01:00:00 23.2 4 Sudoeste 20 Sudoeste 0 -- -- 44
2019-06-09 00:00:00 24.1 4 Sudoeste 18 Sudoeste 0 -- -- 40
2019-06-08 23:00:00 24.7 3 Sudoeste 14 Oeste 0 -- -- 38
2019-06-08 22:00:00 25.9 4 Sudoeste 17 Sudoeste 0 -- -- 36
2019-06-08 21:00:00 27.1 4 Sudoeste 23 Sudoeste 0 -- -- 34
2019-06-08 20:00:00 28.4 7 Oeste 24 Oeste 0 -- -- 32
2019-06-08 19:00:00 29.7 5 Sudoeste 23 Oeste 0 -- -- 33
2019-06-08 18:00:00 30.1 9 Oeste 21 Oeste 0 -- -- 29
2019-06-08 17:00:00 30.4 7 Sudoeste 20 Oeste 0 -- -- 27
2019-06-08 16:00:00 30.2 6 Sudoeste 22 Noroeste 0 -- -- 27
2019-06-08 15:00:00 30.5 3 Sudoeste 16 Oeste 0 -- -- 28
2019-06-08 14:00:00 29.2 4 Noroeste 13 Sudoeste 0 -- -- 32
2019-06-08 13:00:00 27.6 3 Sudoeste 10 Este 0 -- -- 32
2019-06-08 12:00:00 26.5 3 Sudeste 11 Nordeste 0 -- -- 33
2019-06-08 11:00:00 22 4 Este 9 Sudeste 0 -- -- 36
2019-06-08 10:00:00 17.9 4 Este 9 Este 0 -- -- 39
2019-06-08 09:00:00 15.4 0 Calma 8 Nordeste 0 -- -- 44
2019-06-08 08:00:00 14 3 Nordeste 6 Norte 0 -- -- 46
2019-06-08 07:00:00 13.3 0 Calma 4 Sudeste 0 -- -- 44
2019-06-08 06:00:00 14.3 0 Calma 2 Este 0 -- -- 43
2019-06-08 05:00:00 15.4 0 Calma 4 Este 0 -- -- 38
2019-06-08 04:00:00 17.1 0 Calma 11 Norte -- -- -- 34
2019-06-08 03:00:00 18.7 6 Norte 16 Norte 0 -- -- 29
2019-06-08 02:00:00 19.4 9 Nordeste 19 Nordeste 0 -- -- 28
2019-06-08 01:00:00 19.6 6 Norte 15 Noroeste 0 -- -- 28
2019-06-08 00:00:00 19.9 5 Noroeste 14 Norte 0 -- -- 29
2019-06-07 23:00:00 20.6 3 Oeste 11 Oeste 0 -- -- 30
2019-06-07 22:00:00 21.7 0 Calma 8 Oeste 0 -- -- 30
2019-06-07 21:00:00 24.2 2 Sudoeste 9 Oeste 0 -- -- 31
2019-06-07 20:00:00 26.6 3 Sudoeste 11 Noroeste 0 -- -- 26
2019-06-07 19:00:00 27.2 2 Noroeste 12 Sudoeste 0 -- -- 29
2019-06-07 18:00:00 27.1 4 Sudoeste 12 Oeste 0 -- -- 29
2019-06-07 17:00:00 26.2 3 Sudoeste 14 Noroeste 0 -- -- 34
2019-06-07 16:00:00 25.2 4 Noroeste 16 Oeste 0 -- -- 38
2019-06-07 15:00:00 23.7 3 Sudoeste 15 Oeste 0 -- -- 43
2019-06-07 14:00:00 21.9 5 Sudoeste 16 Oeste 0 -- -- 48
2019-06-07 13:00:00 20.7 3 Sudoeste 13 Sudoeste 0 -- -- 54
2019-06-07 12:00:00 17.2 0 Calma 11 Oeste 0 -- -- 62
2019-06-07 11:00:00 16 5 Oeste 15 Oeste 0 -- -- 61
2019-06-07 10:00:00 15.6 6 Oeste 15 Noroeste 0 -- -- 65
2019-06-07 09:00:00 15.4 3 Sudoeste 15 Noroeste 0 -- -- 77
2019-06-07 08:00:00 15.7 4 Sudoeste 18 Sudoeste 0 -- -- 73
2019-06-07 07:00:00 15.7 3 Sudoeste 18 Oeste 0 -- -- 72
2019-06-07 06:00:00 15.6 5 Sudoeste 19 Sudoeste 0 -- -- 71
2019-06-07 05:00:00 15.4 5 Sudoeste 24 Sudoeste 0 -- -- 70
2019-06-07 04:00:00 15.7 6 Sudoeste 23 Sudoeste 0 -- -- 66
2019-06-07 03:00:00 16.2 4 Sudoeste 24 Sudoeste 0 -- -- 55
2019-06-07 02:00:00 16.9 6 Sudoeste 28 Sudoeste 0 -- -- 53
2019-06-07 01:00:00 18.2 5 Sudoeste 31 Oeste 0 -- -- 40
2019-06-07 00:00:00 19.4 7 Sudoeste 24 Sudoeste 0 -- -- 30
2019-06-06 23:00:00 20.8 6 Sudoeste 23 Sudoeste 0 -- -- 22
2019-06-06 22:00:00 22.7 5 Sudoeste 32 Noroeste 0 -- -- 22
2019-06-06 21:00:00 24.4 9 Oeste 26 Noroeste 0 -- -- 25
2019-06-06 20:00:00 26.4 10 Oeste 28 Oeste 0 -- -- 23
2019-06-06 19:00:00 27.2 14 Oeste 35 Noroeste 0 -- -- 23
2019-06-06 18:00:00 28 8 Sudoeste 36 Noroeste 0 -- -- 23
2019-06-06 17:00:00 28.3 7 Sudoeste 31 Noroeste 0 -- -- 23
2019-06-06 16:00:00 27.7 9 Oeste 32 Oeste 0 -- -- 25
2019-06-06 15:00:00 26.3 6 Oeste 19 Sudoeste 0 -- -- 29
2019-06-06 14:00:00 25.3 5 Sudoeste 14 Oeste 0 -- -- 32
2019-06-06 13:00:00 23.9 3 Sudoeste 12 Oeste 0 -- -- 31
2019-06-06 12:00:00 22 4 Nordeste 10 Sudeste 0 -- -- 37
2019-06-06 11:00:00 18 3 Este 8 Sudeste 0 -- -- 45
2019-06-06 10:00:00 15.7 2 Oeste 6 Sudoeste 0 -- -- 53
2019-06-06 09:00:00 13.6 0 Calma 3 Norte 0 -- -- 58
2019-06-06 08:00:00 12 0 Calma 3 Sur 0 -- -- 57
2019-06-06 07:00:00 12.2 0 Calma 4 Oeste 0 -- -- 53
2019-06-06 06:00:00 12.8 0 Calma 5 Oeste 0 -- -- 50
2019-06-06 05:00:00 13.5 0 Calma 3 Oeste 0 -- -- 47
2019-06-06 04:00:00 14.4 0 Calma 4 Oeste 0 -- -- 45
2019-06-06 03:00:00 15.5 0 Calma 3 Norte 0 -- -- 41
2019-06-06 02:00:00 16 0 Calma 2 Norte 0 -- -- 40
2019-06-06 01:00:00 16.9 0 Calma 8 Noroeste 0 -- -- 37
2019-06-06 00:00:00 17.5 0 Calma 5 Norte 0 -- -- 35
2019-06-05 23:00:00 18.3 0 Calma 5 Noroeste -- -- -- 35
2019-06-05 22:00:00 20 0 Calma 13 Noroeste 0 -- -- 31
2019-06-05 21:00:00 22.1 5 Noroeste 23 Noroeste 0 -- -- 28
2019-06-05 20:00:00 24.1 8 Noroeste 27 Oeste 0 -- -- 27
2019-06-05 19:00:00 23.6 8 Oeste 23 Noroeste 0 -- -- 27
2019-06-05 18:00:00 24.2 8 Oeste 27 Oeste 0 -- -- 26
2019-06-05 17:00:00 24.4 7 Oeste 28 Oeste 0 -- -- 24
2019-06-05 16:00:00 25 9 Oeste 25 Oeste 0 -- -- 25
2019-06-05 15:00:00 24.2 7 Noroeste 29 Oeste 0 -- -- 28
2019-06-05 14:00:00 22.7 7 Sudoeste 30 Noroeste 0 -- -- 32
2019-06-05 13:00:00 20.9 6 Sudoeste 20 Sudoeste 0 -- -- 43
2019-06-05 12:00:00 19.5 5 Sudoeste 21 Sudoeste 0 -- -- 46
2019-06-05 11:00:00 17.4 5 Sudoeste 16 Sudoeste 0 -- -- 54
2019-06-05 10:00:00 16.1 7 Oeste 22 Noroeste 0 -- -- 55
2019-06-05 09:00:00 15.1 4 Sudoeste 27 Noroeste 0 -- -- 55
2019-06-05 08:00:00 15.1 11 Oeste 25 Oeste 0 -- -- 54
2019-06-05 07:00:00 16.3 12 Oeste 31 Noroeste 0 -- -- 44
2019-06-05 06:00:00 18 16 Oeste 35 Oeste 0 -- -- 48
2019-06-05 05:00:00 19.1 10 Oeste 24 Oeste 0 -- -- 56
2019-06-05 04:00:00 20 6 Sudoeste 18 Oeste 0 -- -- 60
2019-06-05 03:00:00 20.2 6 Sudoeste 23 Sur 0 -- -- 62
2019-06-05 02:00:00 20.4 5 Sudoeste 23 Oeste 0 -- -- 64
2019-06-05 01:00:00 21.4 6 Sudoeste 25 Sudoeste 0 -- -- 61
2019-06-05 00:00:00 23.1 8 Sudoeste 27 Sudoeste 0 -- -- 53
2019-06-04 23:00:00 24.9 7 Sudoeste 27 Sudoeste 0 -- -- 49
2019-06-04 22:00:00 26.5 6 Sudoeste 29 Sudoeste 0 -- -- 40
2019-06-04 21:00:00 28.3 7 Sudoeste 25 Sudoeste 0 -- -- 36
2019-06-04 20:00:00 29.9 8 Oeste 31 Oeste 0 -- -- 31
2019-06-04 19:00:00 31.2 8 Sudoeste 27 Sudoeste 0 -- -- 30
2019-06-04 18:00:00 31.5 6 Sudoeste 31 Sudoeste 0 -- -- 29
2019-06-04 17:00:00 32.2 9 Oeste 29 Oeste 0 -- -- 28
2019-06-04 16:00:00 32.1 7 Sudoeste 27 Oeste 0 -- -- 27
2019-06-04 15:00:00 31.3 8 Sudoeste 24 Oeste 0 -- -- 23
2019-06-04 14:00:00 29.9 6 Sudoeste 26 Oeste 0 -- -- 27
2019-06-04 13:00:00 28.5 6 Oeste 22 Noroeste 0 -- -- 32
2019-06-04 12:00:00 26.6 4 Sudoeste 12 Oeste 0 -- -- 34
2019-06-04 11:00:00 23.3 3 Sudoeste 10 Oeste 0 -- -- 39
2019-06-04 10:00:00 21.1 0 Calma 9 Sudeste 0 -- -- 42
2019-06-04 09:00:00 19.3 3 Oeste 7 Oeste 0 -- -- 46
2019-06-04 08:00:00 17.9 0 Calma 3 Sudeste 0 -- -- 50
2019-06-04 07:00:00 18.3 0 Calma 7 Sudoeste 0 -- -- 45
2019-06-04 06:00:00 19.8 3 Oeste 9 Noroeste 0 -- -- 42
2019-06-04 05:00:00 20.9 2 Oeste 12 Oeste 0 -- -- 39
2019-06-04 04:00:00 21.8 2 Sudoeste 13 Sudoeste 0 -- -- 39
2019-06-04 03:00:00 23 3 Sudoeste 18 Sudoeste 0 -- -- 37
2019-06-04 02:00:00 24.2 6 Sudoeste 21 Sudoeste 0 -- -- 34
2019-06-04 01:00:00 25.5 4 Sudoeste 22 Oeste 0 -- -- 30
2019-06-04 00:00:00 25.2 3 Sudoeste 9 Sudoeste 0 -- -- 29
2019-06-03 23:00:00 26.5 0 Calma 6 Sudoeste 0 -- -- 27
2019-06-03 22:00:00 29.2 0 Calma 14 Oeste 0 -- -- 24
2019-06-03 21:00:00 32.2 5 Oeste 23 Oeste 0 -- -- 20
2019-06-03 20:00:00 34.4 9 Oeste 29 Oeste 0 -- -- 19
2019-06-03 19:00:00 35.4 8 Oeste 27 Oeste 0 -- -- 18
2019-06-03 18:00:00 36.1 4 Sudoeste 20 Oeste 0 -- -- 19
2019-06-03 17:00:00 35.9 4 Sudoeste 17 Oeste 0 -- -- 21
2019-06-03 16:00:00 35.5 5 Oeste 13 Oeste 0 -- -- 19
2019-06-03 15:00:00 33.6 3 Sur 10 Oeste 0 -- -- 22
2019-06-03 14:00:00 31.4 3 Este 10 Oeste 0 -- -- 24
2019-06-03 13:00:00 29.1 3 Sur 10 Oeste 0 -- -- 27
2019-06-03 12:00:00 27.2 0 Calma 9 Oeste 0 -- -- 34
2019-06-03 11:00:00 23.6 0 Calma 9 Oeste 0 -- -- 39
2019-06-03 10:00:00 21.3 3 Sudeste 10 Sudeste 0 -- -- 43
2019-06-03 09:00:00 19.1 0 Calma 4 Sur 0 -- -- 43
2019-06-03 08:00:00 18 0 Calma 2 Sudeste 0 -- -- 43
2019-06-03 07:00:00 18.6 0 Calma 5 Este 0 -- -- 41
2019-06-03 06:00:00 20.4 0 Calma 6 Sudoeste 0 -- -- 38
2019-06-03 05:00:00 22.3 2 Sudoeste 17 Noroeste 0 -- -- 35
2019-06-03 04:00:00 23.1 10 Oeste 20 Oeste 0 -- -- 33
2019-06-03 03:00:00 23.9 6 Oeste 20 Oeste 0 -- -- 29
2019-06-03 02:00:00 23.5 3 Oeste 9 Oeste 0 -- -- 29
2019-06-03 01:00:00 24.6 0 Calma 10 Sudoeste 0 -- -- 28
2019-06-03 00:00:00 26.5 0 Calma 14 Sudoeste 0 -- -- 27
2019-06-02 23:00:00 28.4 5 Sudoeste 18 Sudoeste 0 -- -- 26
2019-06-02 22:00:00 29.3 2 Oeste 5 Oeste 0 -- -- 26
2019-06-02 21:00:00 31.5 0 Calma 5 Sudeste 0 -- -- 24
2019-06-02 20:00:00 35.2 2 Sudeste 9 Sudeste 0 -- -- 22
2019-06-02 19:00:00 36.4 4 Este 15 Sudeste 0 -- -- 21
2019-06-02 18:00:00 36.8 5 Este 24 Este 0 -- -- 19
2019-06-02 17:00:00 36.6 8 Este 16 Este 0 -- -- 20
2019-06-02 16:00:00 35 4 Noroeste 14 Oeste -- -- -- 22
2019-06-02 15:00:00 33.8 4 Este 8 Nordeste 0 -- -- 24
2019-06-02 14:00:00 31.9 4 Sudeste 12 Sudeste 0 -- -- 24
2019-06-02 13:00:00 30.2 4 Este 10 Nordeste 0 -- -- 28
2019-06-02 12:00:00 27.6 5 Sudeste 9 Este 0 -- -- 32
2019-06-02 11:00:00 23 3 Sudeste 7 Sudeste 0 -- -- 39
2019-06-02 10:00:00 20 2 Sur 7 Este 0 -- -- 44
2019-06-02 09:00:00 17.8 0 Calma 5 Este 0 -- -- 48
2019-06-02 08:00:00 16.7 0 Calma 2 Sur 0 -- -- 54
2019-06-02 07:00:00 16.9 0 Calma 3 Sudeste 0 -- -- 48
2019-06-02 06:00:00 17.7 0 Calma 2 Noroeste 0 -- -- 48
2019-06-02 05:00:00 18.6 0 Calma 3 Oeste 0 -- -- 44
2019-06-02 04:00:00 19.7 0 Calma 5 Oeste 0 -- -- 41
2019-06-02 03:00:00 21.1 0 Calma 6 Noroeste 0 -- -- 38
2019-06-02 02:00:00 22.4 0 Calma 10 Oeste 0 -- -- 36
2019-06-02 01:00:00 23.8 7 Oeste 13 Noroeste 0 -- -- 34
2019-06-02 00:00:00 25.3 4 Sudoeste 15 Sudoeste 0 -- -- 33
2019-06-01 23:00:00 27 3 Sudoeste 18 Este 0 -- -- 30
2019-06-01 22:00:00 28.8 7 Este 18 Este 0 -- -- 23
2019-06-01 21:00:00 31.1 0 Calma 13 Sudeste 0 -- -- 23
2019-06-01 20:00:00 34.8 3 Sudeste 21 Sudeste 0 -- -- 21
2019-06-01 19:00:00 35.9 5 Este 21 Este 0 -- -- 19
2019-06-01 18:00:00 36.6 8 Este 21 Sudeste 0 -- -- 17
2019-06-01 17:00:00 36.1 9 Sudeste 26 Este 0 -- -- 18
2019-06-01 16:00:00 35.6 10 Sudeste 28 Sudeste 0 -- -- 22
2019-06-01 15:00:00 34.6 5 Sudeste 22 Este 0 -- -- 24
2019-06-01 14:00:00 33.4 7 Este 20 Este 0 -- -- 26
2019-06-01 13:00:00 31.3 6 Este 19 Este 0 -- -- 30
2019-06-01 12:00:00 29.1 5 Nordeste 17 Este 0 -- -- 32
2019-06-01 11:00:00 25.9 8 Este 18 Este 0 -- -- 37
2019-06-01 10:00:00 23.1 9 Nordeste 20 Nordeste 0 -- -- 45
2019-06-01 09:00:00 20.7 10 Nordeste 19 Nordeste 0 -- -- 48
2019-06-01 08:00:00 19.1 9 Nordeste 15 Nordeste 0 -- -- 51
2019-06-01 07:00:00 18.7 2 Nordeste 9 Nordeste 0 -- -- 50
2019-06-01 06:00:00 19.2 5 Nordeste 14 Nordeste 0 -- -- 47
2019-06-01 05:00:00 19.7 6 Nordeste 13 Nordeste 0 -- -- 47
2019-06-01 04:00:00 20.2 2 Este 10 Nordeste 0 -- -- 44
2019-06-01 03:00:00 21.4 0 Calma 9 Noroeste 0 -- -- 41
2019-06-01 02:00:00 22.2 0 Calma 3 Este 0 -- -- 41
2019-06-01 01:00:00 23.6 0 Calma 10 Sudeste 0 -- -- 37
2019-06-01 00:00:00 25.2 2 Este 16 Sudeste 0 -- -- 33
2019-05-31 23:00:00 26.7 10 Este 24 Sudeste 0 -- -- 31
2019-05-31 22:00:00 28.5 10 Sudeste 28 Sudeste 0 -- -- 26
2019-05-31 21:00:00 30.8 7 Sudeste 18 Sudeste 0 -- -- 22
2019-05-31 20:00:00 33.5 6 Sudeste 18 Este 0 -- -- 21
2019-05-31 19:00:00 34.7 4 Sudeste 18 Este 0 -- -- 20
2019-05-31 18:00:00 35.2 5 Sudeste 22 Este 0 -- -- 21
2019-05-31 17:00:00 34.7 8 Sudeste 22 Este 0 -- -- 19
2019-05-31 16:00:00 34 5 Sudeste 22 Este 0 -- -- 20
2019-05-31 15:00:00 33.6 8 Este 33 Este 0 -- -- 21
2019-05-31 14:00:00 32.3 10 Este 24 Sudeste 0 -- -- 24
2019-05-31 13:00:00 30.7 8 Este 24 Este 0 -- -- 26
2019-05-31 12:00:00 27.7 12 Nordeste 24 Este 0 -- -- 34
2019-05-31 11:00:00 24.9 10 Este 26 Este 0 -- -- 36
2019-05-31 10:00:00 22.8 11 Este 23 Este -- -- -- 40
2019-05-31 09:00:00 20.3 10 Nordeste 20 Norte 0 -- -- 45
2019-05-31 08:00:00 19 12 Nordeste 20 Nordeste 0 -- -- 47
2019-05-31 07:00:00 18.2 9 Nordeste 15 Nordeste 0 -- -- 49
2019-05-31 06:00:00 18.8 2 Este 14 Nordeste 0 -- -- 48
2019-05-31 05:00:00 19.3 8 Nordeste 14 Nordeste 0 -- -- 45
2019-05-31 04:00:00 19.4 6 Nordeste 13 Nordeste 0 -- -- 45
2019-05-31 03:00:00 20.3 0 Calma 5 Norte 0 -- -- 46
2019-05-31 02:00:00 21.3 0 Calma 4 Noroeste 0 -- -- 45
2019-05-31 01:00:00 22.7 0 Calma 6 Oeste 0 -- -- 42
2019-05-31 00:00:00 23.7 0 Calma 4 Oeste 0 -- -- 36
2019-05-30 23:00:00 25.9 4 Sudeste 17 Este 0 -- -- 31
2019-05-30 22:00:00 27.8 9 Sudeste 23 Sudeste 0 -- -- 28
2019-05-30 21:00:00 29.6 5 Sudeste 14 Este 0 -- -- 25
2019-05-30 20:00:00 32.5 5 Sudeste 21 Sudeste 0 -- -- 24
2019-05-30 19:00:00 33.3 3 Sudeste 22 Este 0 -- -- 24
2019-05-30 18:00:00 33.9 8 Este 23 Sudeste 0 -- -- 24
2019-05-30 17:00:00 34 8 Este 24 Este 0 -- -- 22
2019-05-30 16:00:00 32.7 6 Este 30 Este 0 -- -- 23
2019-05-30 15:00:00 32.5 9 Este 23 Este 0 -- -- 22
2019-05-30 14:00:00 30.8 9 Este 22 Este 0 -- -- 23
2019-05-30 13:00:00 29.7 10 Este 19 Este 0 -- -- 27
2019-05-30 12:00:00 27.7 6 Este 18 Este 0 -- -- 31
2019-05-30 11:00:00 24.1 8 Nordeste 18 Este 0 -- -- 37
2019-05-30 10:00:00 21.3 9 Nordeste 19 Nordeste 0 -- -- 45
2019-05-30 09:00:00 19.3 10 Nordeste 22 Este 0 -- -- 49
2019-05-30 08:00:00 18 5 Nordeste 14 Este 0 -- -- 50
2019-05-30 07:00:00 17.9 7 Nordeste 13 Este 0 -- -- 48
2019-05-30 06:00:00 18.9 5 Nordeste 15 Este 0 -- -- 41
2019-05-30 05:00:00 19.7 7 Nordeste 15 Nordeste 0 -- -- 39
2019-05-30 04:00:00 20.2 5 Nordeste 10 Nordeste 0 -- -- 38
2019-05-30 03:00:00 20.9 4 Sudeste 10 Este 0 -- -- 36
2019-05-30 02:00:00 21.9 5 Nordeste 14 Este -- -- -- 34
2019-05-30 01:00:00 23.6 7 Nordeste 19 Nordeste 0 -- -- 31
2019-05-30 00:00:00 24.7 10 Nordeste 21 Nordeste 0 -- -- 29
2019-05-29 23:00:00 25.4 8 Nordeste 20 Norte -- -- -- 28
2019-05-29 22:00:00 26.7 9 Nordeste 21 Norte 0 -- -- 26
2019-05-29 21:00:00 28.6 11 Nordeste 26 Norte 0 -- -- 23
2019-05-29 20:00:00 31.4 12 Norte 28 Nordeste 0 -- -- 19
2019-05-29 19:00:00 32.6 13 Nordeste 27 Nordeste 0 -- -- 18
2019-05-29 18:00:00 33.1 10 Nordeste 29 Este 0 -- -- 20
2019-05-29 17:00:00 32.6 9 Nordeste 26 Nordeste 0 -- -- 20
2019-05-29 16:00:00 32.2 10 Nordeste 30 Nordeste 0 -- -- 20
2019-05-29 15:00:00 31.2 10 Nordeste 24 Nordeste 0 -- -- 22
2019-05-29 14:00:00 29.8 10 Nordeste 24 Norte 0 -- -- 26
2019-05-29 13:00:00 28.1 11 Nordeste 26 Nordeste 0 -- -- 26
2019-05-29 12:00:00 26.2 11 Nordeste 32 Norte 0 -- -- 31
2019-05-29 11:00:00 23.1 14 Nordeste 27 Norte 0 -- -- 33
2019-05-29 10:00:00 21.1 12 Este 24 Nordeste 0 -- -- 41
2019-05-29 09:00:00 19.8 11 Nordeste 22 Nordeste 0 -- -- 38
2019-05-29 08:00:00 19.2 8 Nordeste 26 Nordeste 0 -- -- 37
2019-05-29 07:00:00 19.6 13 Nordeste 30 Nordeste 0 -- -- 35
2019-05-29 06:00:00 19.8 10 Nordeste 19 Nordeste 0 -- -- 37
2019-05-29 05:00:00 20.6 10 Nordeste 33 Nordeste 0 -- -- 39
2019-05-29 04:00:00 21.3 15 Nordeste 34 Nordeste 0 -- -- 37
2019-05-29 03:00:00 22.3 13 Nordeste 33 Norte 0 -- -- 32
2019-05-29 02:00:00 23.3 12 Nordeste 21 Nordeste 0 -- -- 27
2019-05-29 01:00:00 23.8 8 Nordeste 14 Nordeste 0 -- -- 27
2019-05-29 00:00:00 25.5 6 Nordeste 18 Nordeste 0 -- -- 26
2019-05-28 23:00:00 27.3 10 Nordeste 28 Nordeste 0 -- -- 24
2019-05-28 22:00:00 29.2 14 Nordeste 33 Nordeste 0 -- -- 24
2019-05-28 21:00:00 31.6 8 Nordeste 19 Norte 0 -- -- 26
2019-05-28 20:00:00 34.6 6 Norte 18 Noroeste 0 -- -- 24
2019-05-28 19:00:00 35.4 6 Norte 19 Nordeste 0 -- -- 22
2019-05-28 18:00:00 35.9 9 Norte 21 Nordeste 0 -- -- 21
2019-05-28 17:00:00 35.5 6 Noroeste 24 Noroeste 0 -- -- 22
2019-05-28 16:00:00 34.2 5 Oeste 15 Oeste 0 -- -- 24
2019-05-28 15:00:00 33.9 6 Este 21 Este 0 -- -- 26
2019-05-28 14:00:00 32.5 4 Sudeste 21 Nordeste 0 -- -- 28
2019-05-28 13:00:00 32 5 Nordeste 18 Nordeste 0 -- -- 30
2019-05-28 12:00:00 29.3 8 Este 18 Este 0 -- -- 34
2019-05-28 11:00:00 24.6 4 Sudeste 10 Este 0 -- -- 42
2019-05-28 10:00:00 22 4 Este 12 Este 0 -- -- 50
2019-05-28 09:00:00 19.7 4 Este 12 Nordeste 0 -- -- 55
2019-05-28 08:00:00 19 6 Nordeste 10 Nordeste 0 -- -- 54
2019-05-28 07:00:00 20 3 Nordeste 10 Oeste 0 -- -- 52
2019-05-28 06:00:00 20.3 5 Oeste 12 Noroeste 0 -- -- 51
2019-05-28 05:00:00 21 4 Oeste 9 Oeste 0 -- -- 48
2019-05-28 04:00:00 21.9 0 Calma 8 Oeste 0 -- -- 45
2019-05-28 03:00:00 23.3 4 Oeste 16 Oeste 0 -- -- 41
2019-05-28 02:00:00 24.6 4 Sudoeste 17 Sudoeste 0 -- -- 38
2019-05-28 01:00:00 25.8 6 Sudoeste 19 Sudoeste 0 -- -- 37
2019-05-28 00:00:00 26.4 4 Sudoeste 16 Oeste 0 -- -- 38